Time;durP1;ratioP1;P1;durP2;ratioP2;P2;SDS_P1;SDS_P2;PMS_P1;PMS_P2;Temp;Humidity;BMP_temperature;BMP_pressure;BME280_temperature;BME280_humidity;BME280_pressure;Samples;Min_cycle;Max_cycle;Signal;HPM_P1;HPM_P2
2021/12/10 00:09:58;;;;;;;5.45;3.40;;;;;;;15.10;50.31;99436.41;21155674;28;20052;-72
2021/12/10 00:20:02;;;;;;;4.70;2.58;;;;;;;14.47;50.33;99313.06;21137743;28;20043;-72
2021/12/10 00:30:10;;;;;;;5.88;2.92;;;;;;;15.13;50.31;99426.22;21137560;28;20047;-72
2021/12/10 00:40:14;;;;;;;4.40;2.78;;;;;;;15.14;50.09;99406.47;21155067;28;20051;-72
2021/12/10 00:50:27;;;;;;;6.25;2.75;;;;;;;15.11;50.21;99385.31;21160599;28;20043;-72
2021/12/10 01:00:37;;;;;;;4.60;2.30;;;;;;;14.68;50.49;99317.28;21170236;28;20039;-72
2021/12/10 01:10:43;;;;;;;5.10;2.65;;;;;;;14.59;50.14;99287.75;21169499;28;20059;-72
2021/12/10 01:31:08;;;;;;;3.70;1.90;;;;;;;15.13;50.34;99343.13;21167537;28;20047;-72
2021/12/10 01:41:13;;;;;;;3.53;1.95;;;;;;;15.15;50.09;99343.81;21148842;28;20130;-72
2021/12/10 01:51:19;;;;;;;5.80;2.80;;;;;;;15.02;50.33;99325.44;21166208;28;20073;-72
2021/12/10 02:01:31;;;;;;;4.35;1.85;;;;;;;15.16;50.34;99321.38;21165205;28;20047;-72
2021/12/10 02:11:34;;;;;;;4.15;2.22;;;;;;;15.02;50.13;99311.19;21164869;28;20058;-72
2021/12/10 02:21:39;;;;;;;3.67;1.98;;;;;;;13.99;49.89;99123.25;21145704;28;20048;-72
2021/12/10 02:31:41;;;;;;;4.50;1.80;;;;;;;14.49;49.75;99185.22;21145142;28;20069;-72
2021/12/10 02:41:43;;;;;;;5.68;2.20;;;;;;;14.69;50.28;99209.13;21162059;28;20036;-72
2021/12/10 02:51:45;;;;;;;4.70;2.97;;;;;;;15.13;50.26;99254.66;21161232;28;20058;-72
2021/12/10 03:01:50;;;;;;;4.68;2.40;;;;;;;15.14;50.18;99250.13;21160163;28;20039;-72
2021/12/10 03:11:56;;;;;;;4.53;2.30;;;;;;;15.14;50.00;99240.25;21159242;28;20047;-72
2021/12/10 03:21:58;;;;;;;4.05;2.05;;;;;;;14.48;49.93;99141.53;21159662;28;20770;-72
2021/12/10 03:32:03;;;;;;;4.00;1.92;;;;;;;14.49;49.79;99140.53;21140033;28;20044;-72
2021/12/10 03:42:06;;;;;;;6.17;2.50;;;;;;;15.07;49.96;99218.59;21157505;28;20052;-72
2021/12/10 03:52:08;;;;;;;4.50;2.00;;;;;;;14.55;49.59;99101.56;21122209;28;20051;-72
2021/12/10 04:02:10;;;;;;;4.43;2.33;;;;;;;15.17;49.77;99191.69;21156372;28;20056;-72
2021/12/10 04:12:13;;;;;;;4.35;2.70;;;;;;;14.40;49.40;99066.53;21156509;28;20071;-72
2021/12/10 04:22:14;;;;;;;5.18;3.00;;;;;;;15.08;49.92;99169.38;21140895;28;20039;-72
2021/12/10 04:32:16;;;;;;;3.80;2.80;;;;;;;15.11;49.60;99165.53;21172204;28;20101;-72
2021/12/10 04:42:23;;;;;;;6.07;3.38;;;;;;;14.61;49.53;99055.44;21171632;28;20043;-73
2021/12/10 04:52:25;;;;;;;5.55;3.55;;;;;;;14.96;49.31;99124.25;21170814;28;20060;-72
2021/12/10 05:02:27;;;;;;;4.85;2.90;;;;;;;15.08;49.78;99106.91;21170075;28;20060;-72
2021/12/10 05:12:29;;;;;;;4.45;3.15;;;;;;;14.44;49.54;98998.28;21169703;28;20153;-72
2021/12/10 05:22:30;;;;;;;5.40;3.10;;;;;;;14.94;49.18;99078.88;21168492;28;20040;-72
2021/12/10 05:32:32;;;;;;;3.58;2.60;;;;;;;15.10;49.22;99074.56;21167534;28;20055;-72
2021/12/10 05:42:34;;;;;;;3.97;2.90;;;;;;;15.63;49.20;99120.78;21166722;28;20096;-72
2021/12/10 05:52:37;;;;;;;4.47;2.53;;;;;;;15.95;48.50;99074.38;21148022;28;20039;-72
2021/12/10 06:02:38;;;;;;;4.55;2.25;;;;;;;16.46;48.37;99083.22;21147416;28;20048;-71
2021/12/10 06:12:41;;;;;;;3.13;2.10;;;;;;;16.09;48.13;98972.69;21165110;28;20044;-72
2021/12/10 06:22:43;;;;;;;3.60;2.22;;;;;;;16.82;47.74;99062.13;21163829;28;20040;-75
2021/12/10 06:32:47;;;;;;;5.60;2.17;;;;;;;16.88;47.84;99049.84;21146182;28;20071;-71
2021/12/10 06:42:50;;;;;;;2.65;1.73;;;;;;;16.35;47.83;98958.19;21161845;28;20051;-71
2021/12/10 06:52:53;;;;;;;2.50;1.85;;;;;;;15.91;48.01;98877.13;21160377;28;20051;-72
2021/12/10 07:02:55;;;;;;;3.45;2.13;;;;;;;16.93;47.83;99034.03;21142475;28;20446;-72
2021/12/10 07:12:57;;;;;;;3.75;1.55;;;;;;;16.99;48.20;99047.78;21141809;28;20043;-72
2021/12/10 07:22:59;;;;;;;2.47;1.85;;;;;;;16.67;47.97;99004.75;21159107;28;20040;-73
2021/12/10 07:33:01;;;;;;;4.93;1.52;;;;;;;16.62;47.84;98974.88;21123556;28;20100;-71
2021/12/10 07:43:04;;;;;;;3.83;1.83;;;;;;;16.63;47.74;98992.69;21157459;28;20051;-72
2021/12/10 07:53:06;;;;;;;3.13;1.77;;;;;;;16.00;47.60;98888.69;21158326;28;20061;-74
2021/12/10 08:03:08;;;;;;;2.42;1.70;;;;;;;17.10;46.95;99085.03;21138228;28;20063;-71
2021/12/10 08:13:10;;;;;;;3.13;1.40;;;;;;;16.47;47.72;98966.72;21155896;28;20097;-73
2021/12/10 08:23:14;;;;;;;4.80;2.20;;;;;;;16.45;45.26;98968.75;21155721;28;20047;-73
2021/12/10 08:33:16;;;;;;;3.38;1.70;;;;;;;16.76;46.77;99024.34;21155338;28;20851;-75
2021/12/10 08:43:18;;;;;;;4.57;2.40;;;;;;;17.03;46.59;99068.78;21136946;28;20104;-74
2021/12/10 08:53:20;;;;;;;4.57;1.60;;;;;;;17.02;46.14;99042.06;21154689;28;20043;-75
2021/12/10 09:03:22;;;;;;;4.60;1.90;;;;;;;17.15;46.73;99077.28;21135631;28;20055;-74
2021/12/10 09:13:25;;;;;;;4.82;3.10;;;;;;;16.76;42.47;99072.72;21127524;28;20442;-74
2021/12/10 09:23:28;;;;;;;10.90;4.70;;;;;;;15.80;40.82;99063.44;21150231;28;20088;-72
2021/12/10 09:33:30;;;;;;;5.32;2.33;;;;;;;15.57;42.74;99057.06;21149955;28;20043;-75
2021/12/10 09:43:33;;;;;;;5.30;2.10;;;;;;;15.66;43.55;98981.78;21148990;28;20094;-78
2021/12/10 09:53:38;;;;;;;6.07;2.00;;;;;;;16.59;43.36;99053.97;21130823;28;20056;-76
2021/12/10 10:03:43;;;;;;;4.30;1.50;;;;;;;16.79;44.46;99045.47;21165187;28;20051;-73
2021/12/10 10:13:47;;;;;;;4.90;2.27;;;;;;;16.80;45.13;99026.50;21164676;28;20047;-80
2021/12/10 10:23:50;;;;;;;2.92;1.33;;;;;;;17.07;45.75;99055.81;21145530;28;20060;-74
2021/12/10 10:33:55;;;;;;;9.68;1.60;;;;;;;16.68;44.89;98985.75;21144943;28;20051;-74
2021/12/10 10:44:00;;;;;;;4.05;1.27;;;;;;;17.11;45.73;99041.00;21144589;28;20048;-73
2021/12/10 10:54:06;;;;;;;3.05;1.30;;;;;;;17.11;45.82;99019.50;21161275;28;20048;-72
2021/12/10 11:04:17;;;;;;;2.88;1.13;;;;;;;17.22;46.16;99043.28;21160589;28;20473;-72
2021/12/10 11:14:29;;;;;;;7.40;1.45;;;;;;;16.76;46.26;98949.09;21159766;28;20100;-71
2021/12/10 11:24:34;;;;;;;5.05;1.48;;;;;;;17.24;46.58;99025.16;21159077;28;20052;-73
2021/12/10 11:34:42;;;;;;;2.60;1.20;;;;;;;17.44;46.79;99065.03;21157751;28;20048;-75
2021/12/10 11:45:04;;;;;;;5.20;1.33;;;;;;;17.45;47.29;99053.25;21157841;28;20381;-74
2021/12/10 11:55:09;;;;;;;3.25;1.20;;;;;;;17.44;47.55;99045.34;21157414;28;20054;-75
2021/12/10 12:05:14;;;;;;;5.30;1.20;;;;;;;17.31;47.47;99027.94;21138963;28;20043;-74
2021/12/10 12:15:21;;;;;;;7.13;1.67;;;;;;;17.36;47.55;99057.81;21156265;28;20058;-73
2021/12/10 12:25:32;;;;;;;7.85;1.33;;;;;;;17.39;47.43;99038.63;21155866;28;20047;-72
2021/12/10 12:35:40;;;;;;;7.85;2.20;;;;;;;17.47;47.06;99055.75;21138521;28;20548;-73
2021/12/10 12:45:43;;;;;;;6.20;1.40;;;;;;;16.75;45.95;98839.94;21160271;28;20044;-73
2021/12/10 12:56:11;;;;;;;2.72;1.10;;;;;;;17.39;46.53;98967.88;21141102;28;20069;-73
2021/12/10 13:06:49;;;;;;;5.35;1.35;;;;;;;17.76;46.86;99070.34;21151674;28;20059;-72
2021/12/10 13:16:59;;;;;;;4.13;1.40;;;;;;;17.53;47.31;99084.66;21151558;28;20048;-71
2021/12/10 13:27:03;;;;;;;6.80;1.13;;;;;;;17.43;47.63;99074.09;21168435;28;20130;-71
2021/12/10 13:37:08;;;;;;;3.10;1.10;;;;;;;16.80;48.03;98999.63;21149979;28;20047;-71
2021/12/10 13:47:30;;;;;;;5.30;1.37;;;;;;;17.23;48.10;99095.22;21167078;28;20036;-71
2021/12/10 13:57:33;;;;;;;3.65;1.00;;;;;;;16.62;48.35;99018.69;21165786;28;20052;-73
2021/12/10 14:07:52;;;;;;;4.70;1.05;;;;;;;16.66;48.34;99043.38;21165013;28;20056;-71
2021/12/10 14:18:04;;;;;;;1.33;1.10;;;;;;;16.61;48.11;99053.81;21164582;28;20109;-71
2021/12/10 14:28:41;;;;;;;2.58;1.10;;;;;;;17.17;48.71;99161.28;21163540;28;20074;-72
2021/12/10 14:39:03;;;;;;;4.90;1.20;;;;;;;17.23;48.68;99198.28;21162740;28;20066;-71
2021/12/10 14:49:45;;;;;;;4.65;1.30;;;;;;;16.88;48.92;99156.50;21161679;28;20047;-72
2021/12/10 15:00:16;;;;;;;3.55;1.20;;;;;;;16.55;48.77;99109.06;21161018;28;20043;-72
2021/12/10 15:10:47;;;;;;;3.38;1.58;;;;;;;16.73;48.60;99140.22;21144072;28;20086;-72
2021/12/10 15:21:26;;;;;;;2.22;1.30;;;;;;;17.28;47.97;99246.16;21144343;28;20440;-71
2021/12/10 15:31:29;;;;;;;5.05;1.02;;;;;;;17.12;48.37;99247.03;21158593;28;20067;-71
2021/12/10 15:41:36;;;;;;;1.73;1.10;;;;;;;17.10;48.33;99278.63;21140791;28;20114;-71
2021/12/10 15:51:46;;;;;;;4.45;1.35;;;;;;;16.92;48.31;99289.53;21158608;28;20055;-71
2021/12/10 16:01:48;;;;;;;1.63;1.10;;;;;;;16.87;48.31;99321.47;21156597;28;20070;-71
2021/12/10 16:11:53;;;;;;;2.35;1.10;;;;;;;16.67;48.20;99329.88;21156392;28;20100;-71
2021/12/10 16:22:10;;;;;;;1.40;0.80;;;;;;;16.58;48.44;99339.75;21147076;28;20043;-71
2021/12/10 16:32:19;;;;;;;2.30;1.00;;;;;;;15.90;48.30;99261.06;21172844;28;20043;-71
2021/12/10 16:42:21;;;;;;;1.08;0.98;;;;;;;16.50;48.38;99380.03;21137128;28;20039;-71
2021/12/10 16:52:29;;;;;;;3.10;1.33;;;;;;;15.84;47.91;99284.00;21154249;28;20047;-71
2021/12/10 17:02:44;;;;;;;3.80;1.30;;;;;;;14.70;47.77;99117.06;21171163;28;20051;-71
2021/12/10 17:12:47;;;;;;;1.63;1.08;;;;;;;16.51;47.76;99427.38;21169654;28;20062;-71
2021/12/10 17:22:49;;;;;;;3.97;1.40;;;;;;;15.90;47.64;99345.09;21168960;28;20060;-72
2021/12/10 17:32:53;;;;;;;1.98;1.05;;;;;;;16.64;47.71;99472.59;21167131;28;20104;-71
2021/12/10 17:43:04;;;;;;;1.77;1.23;;;;;;;15.97;47.41;99320.28;21149784;28;20093;-71
2021/12/10 17:53:10;;;;;;;1.80;1.17;;;;;;;17.07;47.08;99475.25;21148318;28;20066;-71
2021/12/10 18:03:16;;;;;;;1.45;1.35;;;;;;;16.04;46.85;99314.13;21147462;28;20056;-71
2021/12/10 18:13:21;;;;;;;1.60;1.50;;;;;;;17.18;46.92;99517.13;21146990;28;20039;-71
2021/12/10 18:23:27;;;;;;;2.90;1.50;;;;;;;16.82;46.83;99469.81;21164082;28;20480;-71
2021/12/10 18:33:33;;;;;;;4.25;1.65;;;;;;;16.78;46.73;99473.78;21163246;28;20055;-71
2021/12/10 18:43:37;;;;;;;4.07;2.10;;;;;;;16.71;46.67;99470.09;21144729;28;20043;-71
2021/12/10 18:53:48;;;;;;;3.60;2.20;;;;;;;17.38;46.64;99598.34;21161638;28;20054;-71
2021/12/10 19:04:03;;;;;;;2.40;1.90;;;;;;;16.93;46.80;99541.22;21160337;28;20047;-71
2021/12/10 19:14:10;;;;;;;2.90;2.23;;;;;;;17.48;46.71;99647.47;21160264;28;20112;-71
2021/12/10 19:24:27;;;;;;;3.60;2.30;;;;;;;17.34;46.91;99661.56;21159338;28;20055;-72
2021/12/10 19:34:34;;;;;;;3.20;2.00;;;;;;;17.00;46.88;99600.59;21140668;28;20046;-71
2021/12/10 19:44:41;;;;;;;2.90;2.00;;;;;;;16.99;46.79;99618.56;21157924;28;20146;-71
2021/12/10 19:54:49;;;;;;;3.28;2.10;;;;;;;17.13;46.81;99657.44;21156968;28;20052;-71
2021/12/10 20:04:58;;;;;;;3.13;2.42;;;;;;;17.50;46.94;99742.31;21156714;28;20541;-70
2021/12/10 20:15:11;;;;;;;3.83;2.55;;;;;;;17.44;46.92;99726.84;21156388;28;20043;-71
2021/12/10 20:25:20;;;;;;;3.83;2.60;;;;;;;17.46;46.80;99751.72;21121498;28;20048;-70
2021/12/10 20:35:24;;;;;;;4.28;2.25;;;;;;;17.46;46.68;99794.78;21137529;28;20047;-71
2021/12/10 20:45:35;;;;;;;3.45;2.30;;;;;;;16.90;46.64;99709.06;21155246;28;20055;-71
2021/12/10 20:55:44;;;;;;;2.47;2.28;;;;;;;17.37;46.78;99796.56;21136770;28;20376;-71
2021/12/10 21:05:52;;;;;;;4.15;2.65;;;;;;;16.89;46.78;99738.78;21139703;28;20104;-71
2021/12/10 21:16:05;;;;;;;3.55;2.42;;;;;;;17.39;46.81;99850.25;21169847;28;20036;-71
2021/12/10 21:26:34;;;;;;;4.13;2.80;;;;;;;17.23;46.80;99880.56;21168870;28;20044;-71
2021/12/10 21:47:07;;;;;;;3.20;2.60;;;;;;;16.82;46.95;99894.50;21167025;28;20100;-71
2021/12/10 21:57:16;;;;;;;3.53;2.92;;;;;;;16.03;46.87;99805.53;21166256;28;20138;-71
2021/12/10 22:07:22;;;;;;;3.80;3.08;;;;;;;16.52;46.99;99926.91;21148112;28;20063;-71
2021/12/10 22:17:29;;;;;;;4.35;2.90;;;;;;;15.72;46.94;99844.22;21165574;28;20051;-72
2021/12/10 22:27:52;;;;;;;4.22;2.72;;;;;;;15.54;47.05;99851.38;21149274;28;20059;-71
2021/12/10 22:37:57;;;;;;;4.05;2.83;;;;;;;16.01;47.40;99977.50;21145271;28;20051;-71
2021/12/10 22:48:10;;;;;;;4.43;2.92;;;;;;;15.25;46.60;99890.69;21162378;28;20055;-71
2021/12/10 22:58:29;;;;;;;4.80;3.17;;;;;;;15.69;46.98;100015.38;21161349;28;20051;-71
2021/12/10 23:08:36;;;;;;;5.18;3.10;;;;;;;15.58;46.71;100046.75;21160820;28;20060;-73
2021/12/10 23:18:54;;;;;;;2.90;2.55;;;;;;;14.92;47.17;99982.09;21160151;28;20043;-71
2021/12/10 23:29:04;;;;;;;2.88;2.60;;;;;;;15.10;47.02;100053.81;21158592;28;20116;-71
2021/12/10 23:39:13;;;;;;;3.20;2.75;;;;;;;15.07;46.86;100076.34;21158653;28;20072;-71
2021/12/10 23:49:24;;;;;;;3.13;2.80;;;;;;;14.45;47.14;100065.69;21157872;28;20538;-71
2021/12/10 23:59:28;;;;;;;3.95;3.20;;;;;;;14.97;47.30;100112.16;21138843;28;20047;-71
